createdAt,value
2019-01-13T00:00:29.534Z,92.85
2019-01-13T00:01:39.686Z,93.23
2019-01-13T00:02:49.566Z,93.23
2019-01-13T00:03:59.702Z,93.04
2019-01-13T00:05:09.814Z,93.32
2019-01-13T00:06:19.937Z,93.32
2019-01-13T00:07:30.072Z,93.6
2019-01-13T00:08:40.191Z,93.7
2019-01-13T00:09:50.339Z,93.7
2019-01-13T00:11:00.216Z,93.99
2019-01-13T00:12:10.344Z,93.79
2019-01-13T00:13:20.466Z,93.99
2019-01-13T00:14:30.633Z,94.18
2019-01-13T00:15:40.796Z,94.27
2019-01-13T00:16:50.922Z,94.37
2019-01-13T00:18:01.098Z,94.56
2019-01-13T00:19:11.216Z,94.84
2019-01-13T00:20:21.344Z,94.37
2019-01-13T00:21:31.530Z,94.37
2019-01-13T00:22:41.700Z,94.37
2019-01-13T00:23:51.828Z,94.84
2019-01-13T00:25:01.977Z,94.93
2019-01-13T00:26:12.102Z,95.51
2019-01-13T00:27:22.230Z,94.93
2019-01-13T00:28:32.028Z,95.32
2019-01-13T00:29:42.135Z,94.84
2019-01-13T00:30:52.276Z,95.12
2019-01-13T00:32:02.413Z,94.93
2019-01-13T00:33:12.557Z,95.12
2019-01-13T00:34:22.730Z,95.51
2019-01-13T00:35:32.864Z,95.7
2019-01-13T00:36:42.984Z,95.6
2019-01-13T00:37:52.885Z,95.6
2019-01-13T00:39:03.000Z,95.6
2019-01-13T00:40:13.125Z,95.41
2019-01-13T00:41:23.271Z,95.6
2019-01-13T00:42:33.383Z,95.51
2019-01-13T00:43:43.513Z,95.79
2019-01-13T00:44:53.644Z,95.51
2019-01-13T00:46:03.773Z,94.93
2019-01-13T00:47:13.535Z,95.41
2019-01-13T00:48:23.661Z,95.12
2019-01-13T00:49:33.543Z,95.6
2019-01-13T00:50:43.654Z,95.79
2019-01-13T00:51:53.801Z,95.79
2019-01-13T00:53:03.967Z,95.41
2019-01-13T00:54:14.101Z,95.98
2019-01-13T00:55:24.233Z,95.79
2019-01-13T00:56:34.096Z,96.17
2019-01-13T00:57:44.226Z,96.45
2019-01-13T00:58:54.395Z,96.36
2019-01-13T01:00:04.495Z,96.17
2019-01-13T01:01:13.997Z,96.26
2019-01-13T01:02:24.118Z,96.26
2019-01-13T01:03:34.259Z,96.17
2019-01-13T01:04:44.395Z,96.08
2019-01-13T01:05:54.520Z,96.36
2019-01-13T01:07:04.392Z,96.45
2019-01-13T01:08:14.519Z,96.26
2019-01-13T01:09:24.621Z,96.45
2019-01-13T01:10:34.780Z,96.65
2019-01-13T01:11:44.898Z,96.45
2019-01-13T01:12:55.010Z,97.12
2019-01-13T01:14:05.129Z,96.93
2019-01-13T01:15:15.254Z,96.26
2019-01-13T01:16:25.414Z,96.65
2019-01-13T01:17:35.523Z,96.36
2019-01-13T01:18:45.637Z,96.17
2019-01-13T01:19:55.747Z,96.45
2019-01-13T01:21:05.862Z,96.36
2019-01-13T01:22:15.973Z,96.36
2019-01-13T01:23:26.092Z,96.45
2019-01-13T01:24:36.202Z,96.45
2019-01-13T01:25:46.312Z,96.65
2019-01-13T01:26:56.418Z,97.12
2019-01-13T01:28:06.530Z,97.12
2019-01-13T01:29:16.640Z,97.22
2019-01-13T01:30:33.254Z,97.31
2019-01-13T01:31:43.534Z,96.36
2019-01-13T01:32:53.644Z,96.55
2019-01-13T01:34:03.762Z,96.36
2019-01-13T01:35:13.870Z,96.55
2019-01-13T01:36:23.996Z,96.55
2019-01-13T01:37:34.147Z,96.26
2019-01-13T01:38:44.276Z,96.26
2019-01-13T01:39:54.395Z,96.36
2019-01-13T01:41:04.517Z,96.36
2019-01-13T01:42:14.638Z,96.55
2019-01-13T01:43:24.749Z,96.17
2019-01-13T01:44:34.883Z,96.26
2019-01-13T01:45:45.010Z,95.89
2019-01-13T01:46:55.131Z,95.98
2019-01-13T01:48:05.001Z,95.89
2019-01-13T01:49:15.117Z,95.79
2019-01-13T01:50:25.231Z,96.08
2019-01-13T01:51:35.346Z,95.98
2019-01-13T01:52:45.464Z,95.79
2019-01-13T01:53:55.642Z,95.89
2019-01-13T01:55:05.775Z,95.79
2019-01-13T01:56:15.904Z,95.98
2019-01-13T01:57:26.029Z,95.41
2019-01-13T01:58:36.146Z,95.79
2019-01-13T01:59:46.268Z,95.12
2019-01-13T02:00:56.391Z,95.41
2019-01-13T02:02:06.497Z,94.65
2019-01-13T02:03:16.604Z,94.84
2019-01-13T02:04:26.791Z,95.6
2019-01-13T02:05:36.976Z,95.7
2019-01-13T02:06:47.242Z,95.41
2019-01-13T02:07:57.382Z,95.7
2019-01-13T02:09:07.576Z,94.84
2019-01-13T02:10:17.695Z,94.74
2019-01-13T02:11:27.855Z,94.56
2019-01-13T02:12:37.967Z,94.74
2019-01-13T02:13:48.090Z,94.74
2019-01-13T02:14:57.976Z,94.84
2019-01-13T02:16:08.095Z,94.84
2019-01-13T02:17:18.236Z,94.74
2019-01-13T02:18:28.087Z,94.46
2019-01-13T02:19:37.859Z,94.65
2019-01-13T02:20:47.714Z,94.93
2019-01-13T02:21:57.864Z,94.27
2019-01-13T02:23:07.727Z,94.46
2019-01-13T02:24:17.851Z,94.27
2019-01-13T02:25:27.946Z,94.37
2019-01-13T02:26:38.079Z,95.03
2019-01-13T02:27:48.205Z,93.84
2019-01-13T02:28:58.331Z,93.99
2019-01-13T02:30:08.448Z,94.13
2019-01-13T02:31:18.573Z,93.99
2019-01-13T02:32:28.708Z,94.56
2019-01-13T02:33:38.850Z,93.99
2019-01-13T02:34:48.975Z,94.6
2019-01-13T02:35:59.092Z,94.6
2019-01-13T02:37:09.220Z,94.6
2019-01-13T02:38:19.351Z,94.6
2019-01-13T02:39:29.472Z,94.32
2019-01-13T02:40:39.594Z,94.46
2019-01-13T02:41:49.706Z,95.03
2019-01-13T02:42:59.803Z,94.65
2019-01-13T02:44:09.963Z,94.46
2019-01-13T02:45:20.103Z,94.6
2019-01-13T02:46:30.200Z,95.08
2019-01-13T02:47:40.334Z,94.79
2019-01-13T02:48:50.511Z,94.84
2019-01-13T02:50:00.874Z,94.37
2019-01-13T02:51:10.985Z,94.93
2019-01-13T02:52:21.108Z,94.89
2019-01-13T02:53:31.211Z,94.65
2019-01-13T02:54:41.318Z,95.51
2019-01-13T02:55:51.448Z,95.46
2019-01-13T02:57:01.571Z,95.41
2019-01-13T02:58:11.703Z,95.12
2019-01-13T02:59:21.816Z,95.32
2019-01-13T03:00:31.936Z,94.93
2019-01-13T03:01:42.059Z,95.03
2019-01-13T03:02:52.215Z,95.65
2019-01-13T03:04:02.398Z,95.32
2019-01-13T03:05:12.245Z,95.46
2019-01-13T03:06:22.422Z,95.46
2019-01-13T03:07:32.630Z,95.7
2019-01-13T03:08:42.742Z,95.36
2019-01-13T03:09:52.870Z,96.17
2019-01-13T03:11:02.970Z,95.98
2019-01-13T03:12:13.109Z,95.6
2019-01-13T03:13:23.225Z,96.08
2019-01-13T03:14:33.339Z,96.17
2019-01-13T03:15:43.474Z,96.26
2019-01-13T03:16:53.605Z,96.17
2019-01-13T03:18:03.717Z,97.12
2019-01-13T03:19:13.843Z,96.93
2019-01-13T03:20:24.002Z,96.93
2019-01-13T03:21:34.183Z,97.41
2019-01-13T03:22:43.943Z,97.97
2019-01-13T03:23:54.061Z,97.97
2019-01-13T03:25:04.177Z,97.88
2019-01-13T03:26:15.174Z,97.69
2019-01-13T03:27:25.308Z,97.97
2019-01-13T03:28:35.170Z,97.97
2019-01-13T03:29:45.286Z,97.78
2019-01-13T03:30:55.402Z,97.6
2019-01-13T03:32:18.783Z,97.6
2019-01-13T03:33:28.947Z,97.69
2019-01-13T03:34:39.058Z,97.88
2019-01-13T03:35:49.167Z,97.97
2019-01-13T03:36:59.283Z,97.69
2019-01-13T03:38:09.381Z,97.31
2019-01-13T03:39:19.558Z,97.12
2019-01-13T03:40:29.705Z,97.31
2019-01-13T03:41:39.830Z,97.03
2019-01-13T03:42:49.957Z,96.93
2019-01-13T03:44:00.086Z,96.84
2019-01-13T03:45:10.211Z,97.45
2019-01-13T03:46:20.339Z,97.45
2019-01-13T03:47:30.208Z,97.27
2019-01-13T03:48:40.321Z,97.22
2019-01-13T03:49:50.481Z,97.5
2019-01-13T03:51:00.589Z,97.78
2019-01-13T03:52:10.717Z,97.6
2019-01-13T03:53:20.816Z,98.07
2019-01-13T03:54:30.920Z,97.97
2019-01-13T03:55:41.034Z,97.97
2019-01-13T03:56:51.152Z,97.93
2019-01-13T03:58:01.258Z,97.69
2019-01-13T03:59:11.385Z,97.93
2019-01-13T04:00:21.521Z,98.07
2019-01-13T04:01:31.671Z,97.78
2019-01-13T04:02:41.800Z,98.12
2019-01-13T04:03:51.900Z,97.97
2019-01-13T04:05:02.022Z,97.6
2019-01-13T04:06:12.779Z,97.97
2019-01-13T04:07:22.898Z,97.36
2019-01-13T04:08:33.085Z,97.31
2019-01-13T04:09:43.213Z,97.12
2019-01-13T04:10:53.324Z,97.27
2019-01-13T04:12:03.482Z,97.08
2019-01-13T04:13:13.590Z,97.08
2019-01-13T04:14:23.709Z,96.5
2019-01-13T04:15:33.820Z,96.6
2019-01-13T04:16:43.951Z,96.31
2019-01-13T04:17:54.040Z,96.03
2019-01-13T04:19:04.203Z,95.94
2019-01-13T04:20:14.320Z,96.12
2019-01-13T04:21:24.453Z,95.75
2019-01-13T04:22:34.574Z,95.46
2019-01-13T04:23:44.682Z,95.36
2019-01-13T04:24:54.810Z,95.46
2019-01-13T04:26:04.911Z,95.46
2019-01-13T04:27:15.022Z,94.98
2019-01-13T04:28:24.879Z,94.79
2019-01-13T04:29:34.977Z,94.79
2019-01-13T04:30:45.081Z,94.89
2019-01-13T04:31:55.199Z,94.79
2019-01-13T04:33:05.299Z,95.08
2019-01-13T04:34:15.400Z,94.6
2019-01-13T04:35:25.510Z,94.6
2019-01-13T04:36:35.617Z,94.79
2019-01-13T04:37:45.735Z,94.42
2019-01-13T04:38:55.882Z,94.7
2019-01-13T04:40:06.031Z,94.13
2019-01-13T04:41:16.151Z,93.94
2019-01-13T04:42:26.293Z,93.94
2019-01-13T04:43:36.410Z,93.84
2019-01-13T04:44:46.531Z,93.94
2019-01-13T04:45:56.647Z,93.84
2019-01-13T04:47:06.774Z,93.65
2019-01-13T04:48:16.894Z,93.65
2019-01-13T04:49:27.063Z,93.65
2019-01-13T04:50:37.180Z,93.75
2019-01-13T04:51:47.300Z,93.84
2019-01-13T04:52:57.600Z,93.37
2019-01-13T04:54:07.742Z,93.94
2019-01-13T04:55:17.870Z,93.94
2019-01-13T04:56:27.976Z,94.03
2019-01-13T04:57:37.840Z,93.27
2019-01-13T04:58:47.960Z,93.46
2019-01-13T04:59:58.086Z,93.94
2019-01-13T05:01:08.208Z,93.84
2019-01-13T05:02:18.322Z,93.94
2019-01-13T05:03:28.659Z,93.84
2019-01-13T05:04:38.784Z,93.84
2019-01-13T05:05:48.915Z,93.75
2019-01-13T05:06:58.773Z,93.75
2019-01-13T05:08:08.886Z,93.84
2019-01-13T05:09:18.985Z,93.94
2019-01-13T05:10:29.110Z,94.22
2019-01-13T05:11:39.245Z,93.84
2019-01-13T05:12:49.341Z,94.51
2019-01-13T05:13:59.186Z,94.79
2019-01-13T05:15:09.526Z,94.79
2019-01-13T05:16:19.646Z,94.7
2019-01-13T05:17:29.764Z,94.89
2019-01-13T05:18:41.647Z,95.56
2019-01-13T05:19:51.772Z,95.17
2019-01-13T05:21:02.112Z,95.46
2019-01-13T05:22:12.259Z,95.75
2019-01-13T05:23:22.364Z,95.75
2019-01-13T05:24:32.674Z,96.03
2019-01-13T05:25:42.778Z,96.12
2019-01-13T05:26:52.909Z,96.5
2019-01-13T05:28:03.001Z,96.03
2019-01-13T05:29:13.109Z,96.5
2019-01-13T05:30:22.974Z,96.41
2019-01-13T05:31:33.292Z,96.6
2019-01-13T05:32:49.816Z,97.36
2019-01-13T05:33:59.923Z,97.17
2019-01-13T05:35:10.050Z,96.98
2019-01-13T05:36:20.184Z,97.17
2019-01-13T05:37:30.304Z,97.27
2019-01-13T05:38:40.412Z,97.17
2019-01-13T05:39:50.546Z,96.98
2019-01-13T05:41:00.663Z,96.98
2019-01-13T05:42:10.775Z,97.17
2019-01-13T05:43:20.889Z,97.17
2019-01-13T05:44:30.979Z,97.08
2019-01-13T05:45:41.096Z,96.98
2019-01-13T05:46:51.228Z,97.08
2019-01-13T05:48:01.338Z,97.08
2019-01-13T05:49:11.454Z,97.27
2019-01-13T05:50:21.563Z,97.17
2019-01-13T05:51:31.686Z,96.98
2019-01-13T05:52:41.534Z,96.5
2019-01-13T05:53:51.691Z,96.69
2019-01-13T05:55:01.800Z,96.69
2019-01-13T05:56:11.922Z,96.69
2019-01-13T05:57:22.051Z,96.89
2019-01-13T05:58:32.165Z,96.31
2019-01-13T05:59:42.273Z,96.31
2019-01-13T06:00:52.372Z,96.22
2019-01-13T06:02:02.471Z,96.5
2019-01-13T06:03:12.617Z,96.12
2019-01-13T06:04:22.730Z,96.5
2019-01-13T06:05:32.824Z,96.31
2019-01-13T06:06:42.925Z,96.6
2019-01-13T06:07:53.043Z,96.22
2019-01-13T06:09:03.148Z,96.22
2019-01-13T06:10:13.260Z,96.6
2019-01-13T06:11:23.367Z,96.03
2019-01-13T06:12:33.480Z,95.94
2019-01-13T06:13:43.583Z,95.94
2019-01-13T06:14:53.688Z,95.94
2019-01-13T06:16:03.783Z,96.12
2019-01-13T06:17:13.681Z,96.12
2019-01-13T06:18:23.853Z,96.03
2019-01-13T06:19:33.958Z,96.31
2019-01-13T06:20:44.074Z,96.41
2019-01-13T06:21:54.174Z,95.56
2019-01-13T06:23:04.488Z,95.65
2019-01-13T06:24:14.609Z,95.56
2019-01-13T06:25:24.720Z,96.31
2019-01-13T06:26:34.844Z,96.31
2019-01-13T06:27:44.943Z,95.56
2019-01-13T06:28:55.043Z,95.46
2019-01-13T06:30:05.137Z,95.56
2019-01-13T06:31:16.723Z,95.65
2019-01-13T06:32:26.840Z,95.65
2019-01-13T06:33:36.942Z,95.56
2019-01-13T06:34:47.041Z,95.75
2019-01-13T06:35:57.149Z,95.84
2019-01-13T06:37:07.012Z,95.75
2019-01-13T06:38:17.138Z,95.46
2019-01-13T06:39:27.261Z,95.36
2019-01-13T06:40:37.355Z,95.17
2019-01-13T06:41:47.474Z,95.27
2019-01-13T06:42:57.640Z,95.56
2019-01-13T06:44:07.744Z,95.46
2019-01-13T06:45:17.853Z,95.27
2019-01-13T06:46:27.989Z,95.65
2019-01-13T06:47:38.292Z,95.56
2019-01-13T06:48:48.451Z,95.46
2019-01-13T06:49:58.545Z,95.56
2019-01-13T06:51:09.272Z,94.7
2019-01-13T06:52:19.372Z,94.51
2019-01-13T06:53:29.504Z,94.89
2019-01-13T06:54:39.625Z,95.08
2019-01-13T06:55:49.741Z,94.42
2019-01-13T06:56:59.844Z,94.51
2019-01-13T06:58:09.954Z,94.6
2019-01-13T06:59:20.052Z,94.6
2019-01-13T07:00:30.148Z,94.79
2019-01-13T07:01:40.268Z,95.08
2019-01-13T07:02:50.366Z,94.6
2019-01-13T07:04:00.493Z,93.84
2019-01-13T07:05:10.602Z,94.32
2019-01-13T07:06:20.775Z,93.75
2019-01-13T07:07:30.866Z,93.84
2019-01-13T07:08:40.974Z,93.75
2019-01-13T07:09:51.086Z,94.03
2019-01-13T07:11:01.190Z,93.75
2019-01-13T07:12:11.311Z,93.75
2019-01-13T07:13:21.471Z,93.65
2019-01-13T07:14:31.320Z,93.55
2019-01-13T07:15:41.439Z,94.03
2019-01-13T07:16:51.305Z,93.55
2019-01-13T07:18:01.407Z,93.18
2019-01-13T07:19:11.533Z,93.37
2019-01-13T07:20:21.652Z,93.08
2019-01-13T07:21:31.750Z,93.08
2019-01-13T07:22:43.007Z,92.7
2019-01-13T07:23:53.229Z,92.89
2019-01-13T07:25:03.367Z,92.7
2019-01-13T07:26:13.489Z,92.8
2019-01-13T07:27:23.629Z,92.89
2019-01-13T07:28:33.746Z,93.08
2019-01-13T07:29:43.590Z,93.37
2019-01-13T07:30:53.707Z,93.08
2019-01-13T07:32:10.578Z,93.18
2019-01-13T07:33:20.917Z,93.75
2019-01-13T07:34:31.023Z,93.94
2019-01-13T07:35:40.916Z,93.75
2019-01-13T07:36:51.038Z,93.84
2019-01-13T07:38:01.136Z,94.32
2019-01-13T07:39:11.251Z,94.42
2019-01-13T07:40:21.366Z,94.13
2019-01-13T07:41:31.490Z,94.32
2019-01-13T07:42:41.612Z,94.22
2019-01-13T07:43:51.726Z,94.03
2019-01-13T07:45:01.852Z,94.42
2019-01-13T07:46:11.987Z,94.89
2019-01-13T07:47:22.085Z,94.79
2019-01-13T07:48:32.190Z,94.89
2019-01-13T07:49:42.292Z,94.6
2019-01-13T07:50:52.403Z,94.7
2019-01-13T07:52:02.524Z,94.89
2019-01-13T07:53:12.667Z,94.79
2019-01-13T07:54:22.785Z,95.65
2019-01-13T07:55:32.891Z,95.17
2019-01-13T07:56:43.002Z,95.56
2019-01-13T07:57:52.891Z,95.27
2019-01-13T07:59:03.201Z,95.27
2019-01-13T08:00:13.299Z,94.98
2019-01-13T08:01:24.932Z,95.12
2019-01-13T08:02:35.054Z,95.65
2019-01-13T08:03:45.170Z,96.41
2019-01-13T08:04:55.293Z,95.65
2019-01-13T08:06:05.521Z,96.12
2019-01-13T08:07:15.402Z,96.31
2019-01-13T08:08:25.503Z,96.03
2019-01-13T08:09:35.650Z,96.5
2019-01-13T08:10:45.764Z,96.6
2019-01-13T08:11:55.874Z,96.31
2019-01-13T08:13:06.006Z,96.41
2019-01-13T08:14:16.128Z,96.41
2019-01-13T08:15:26.025Z,96.6
2019-01-13T08:16:36.117Z,96.79
2019-01-13T08:17:46.233Z,97.08
2019-01-13T08:18:56.349Z,96.98
2019-01-13T08:20:06.470Z,96.98
2019-01-13T08:21:16.601Z,97.08
2019-01-13T08:22:26.725Z,96.98
2019-01-13T08:23:36.829Z,97.45
2019-01-13T08:24:46.971Z,97.22
2019-01-13T08:25:57.101Z,97.12
2019-01-13T08:27:07.237Z,97.41
2019-01-13T08:28:17.363Z,96.93
2019-01-13T08:29:27.463Z,97.12
2019-01-13T08:30:38.159Z,97.12
2019-01-13T08:31:48.029Z,97.22
2019-01-13T08:32:58.139Z,97.5
2019-01-13T08:34:08.306Z,97.88
2019-01-13T08:35:18.511Z,97.69
2019-01-13T08:36:28.666Z,97.22
2019-01-13T08:37:38.794Z,97.78
2019-01-13T08:38:48.923Z,98.03
2019-01-13T08:39:59.064Z,97.74
2019-01-13T08:41:09.178Z,98.22
2019-01-13T08:42:18.929Z,98.03
2019-01-13T08:43:29.047Z,97.55
2019-01-13T08:44:39.166Z,98.22
2019-01-13T08:45:52.621Z,98.12
2019-01-13T08:47:02.746Z,97.93
2019-01-13T08:48:12.871Z,97.74
2019-01-13T08:49:23.048Z,97.93
2019-01-13T08:50:34.639Z,97.83
2019-01-13T08:51:44.780Z,98.03
2019-01-13T08:52:54.934Z,97.55
2019-01-13T08:54:05.078Z,98.03
2019-01-13T08:55:15.218Z,98.03
2019-01-13T08:56:25.549Z,97.93
2019-01-13T08:57:35.664Z,98.03
2019-01-13T08:58:45.557Z,98.03
2019-01-13T08:59:55.717Z,98.03
2019-01-13T09:01:05.580Z,97.93
2019-01-13T09:02:15.685Z,97.83
2019-01-13T09:03:25.849Z,97.83
2019-01-13T09:04:36.000Z,97.83
2019-01-13T09:05:46.166Z,97.74
2019-01-13T09:06:56.304Z,97.83
2019-01-13T09:08:06.415Z,97.74
2019-01-13T09:09:16.284Z,97.64
2019-01-13T09:10:26.453Z,97.55
2019-01-13T09:11:36.353Z,98.03
2019-01-13T09:12:46.478Z,98.03
2019-01-13T09:14:02.201Z,97.93
2019-01-13T09:15:12.310Z,97.93
2019-01-13T09:16:22.427Z,97.83
2019-01-13T09:17:32.599Z,97.93
2019-01-13T09:18:42.730Z,97.83
2019-01-13T09:19:52.870Z,98.03
2019-01-13T09:21:03.107Z,97.64
2019-01-13T09:22:13.220Z,97.83
2019-01-13T09:23:23.394Z,97.55
2019-01-13T09:24:33.555Z,98.03
2019-01-13T09:25:43.676Z,98.03
2019-01-13T09:26:53.489Z,97.17
2019-01-13T09:28:03.805Z,97.27
2019-01-13T09:29:13.996Z,97.27
2019-01-13T09:30:24.123Z,97.08
2019-01-13T09:31:34.256Z,97.27
2019-01-13T09:32:44.387Z,97.08
2019-01-13T09:33:54.533Z,97.17
2019-01-13T09:35:04.697Z,97.36
2019-01-13T09:36:14.875Z,96.5
2019-01-13T09:37:25.046Z,97.27
2019-01-13T09:38:36.235Z,96.5
2019-01-13T09:39:46.365Z,96.69
2019-01-13T09:40:56.501Z,96.69
2019-01-13T09:42:06.695Z,96.79
2019-01-13T09:43:16.858Z,96.6
2019-01-13T09:44:26.990Z,96.69
2019-01-13T09:45:37.158Z,96.5
2019-01-13T09:46:47.499Z,96.22
2019-01-13T09:47:57.690Z,96.31
2019-01-13T09:49:07.626Z,96.31
2019-01-13T09:50:17.773Z,96.31
2019-01-13T09:51:27.918Z,96.12
2019-01-13T09:52:38.102Z,96.31
2019-01-13T09:53:48.291Z,96.41
2019-01-13T09:54:58.427Z,96.89
2019-01-13T09:56:08.597Z,96.03
2019-01-13T09:57:18.768Z,96.03
2019-01-13T09:58:28.921Z,96.12
2019-01-13T09:59:42.077Z,95.94
2019-01-13T10:00:52.920Z,96.03
2019-01-13T10:02:03.079Z,96.31
2019-01-13T10:03:13.242Z,96.31
2019-01-13T10:04:23.418Z,95.65
2019-01-13T10:05:33.608Z,95.65
2019-01-13T10:06:43.776Z,95.08
2019-01-13T10:07:53.961Z,95.17
2019-01-13T10:09:04.131Z,95.17
2019-01-13T10:10:14.293Z,95.27
2019-01-13T10:11:24.476Z,94.89
2019-01-13T10:12:34.612Z,95.56
2019-01-13T10:13:44.795Z,94.7
2019-01-13T10:14:54.956Z,94.98
2019-01-13T10:16:05.101Z,94.7
2019-01-13T10:17:15.282Z,94.98
2019-01-13T10:18:25.420Z,94.98
2019-01-13T10:19:35.587Z,94.89
2019-01-13T10:20:45.740Z,94.89
2019-01-13T10:21:55.906Z,94.79
2019-01-13T10:23:06.045Z,94.79
2019-01-13T10:24:16.192Z,94.79
2019-01-13T10:25:26.311Z,94.7
2019-01-13T10:26:36.476Z,94.7
2019-01-13T10:27:46.619Z,94.89
2019-01-13T10:28:56.763Z,94.98
2019-01-13T10:30:06.922Z,94.6
2019-01-13T10:31:17.309Z,94.7
2019-01-13T10:32:27.466Z,94.79
2019-01-13T10:33:37.587Z,94.89
2019-01-13T10:34:47.818Z,94.79
2019-01-13T10:35:57.981Z,94.7
2019-01-13T10:37:08.126Z,94.89
2019-01-13T10:38:18.520Z,95.17
2019-01-13T10:39:28.746Z,95.17
2019-01-13T10:40:38.936Z,94.79
2019-01-13T10:41:49.089Z,95.56
2019-01-13T10:42:58.890Z,95.27
2019-01-13T10:44:09.057Z,94.89
2019-01-13T10:45:19.234Z,95.56
2019-01-13T10:46:29.461Z,94.79
2019-01-13T10:47:39.668Z,95.46
2019-01-13T10:48:49.823Z,95.46
2019-01-13T10:49:59.955Z,95.65
2019-01-13T10:51:10.123Z,95.75
2019-01-13T10:52:20.289Z,95.27
2019-01-13T10:53:30.462Z,95.65
2019-01-13T10:54:40.378Z,95.27
2019-01-13T10:55:50.530Z,95.27
2019-01-13T10:57:01.090Z,95.65
2019-01-13T10:58:11.279Z,95.46
2019-01-13T10:59:21.447Z,95.65
2019-01-13T11:00:31.576Z,95.36
2019-01-13T11:01:41.768Z,95.46
2019-01-13T11:02:51.930Z,95.46
2019-01-13T11:04:09.694Z,95.22
2019-01-13T11:05:19.850Z,95.22
2019-01-13T11:06:29.641Z,95.51
2019-01-13T11:07:39.800Z,95.98
2019-01-13T11:08:49.967Z,95.89
2019-01-13T11:10:00.187Z,96.36
2019-01-13T11:11:10.345Z,95.98
2019-01-13T11:12:20.520Z,96.08
2019-01-13T11:13:30.718Z,96.26
2019-01-13T11:14:41.613Z,97.13
2019-01-13T11:15:51.800Z,97.31
2019-01-13T11:17:01.943Z,97.22
2019-01-13T11:18:11.865Z,97.03
2019-01-13T11:19:22.028Z,98.08
2019-01-13T11:20:32.198Z,97.79
2019-01-13T11:21:42.383Z,98.27
2019-01-13T11:22:52.544Z,98.46
2019-01-13T11:24:02.765Z,98.46
2019-01-13T11:25:12.953Z,98.46
2019-01-13T11:26:23.110Z,98.74
2019-01-13T11:27:33.248Z,98.93
2019-01-13T11:28:43.434Z,99.12
2019-01-13T11:29:53.688Z,98.93
2019-01-13T11:31:03.945Z,99.55
2019-01-13T11:32:14.095Z,99.84
2019-01-13T11:33:24.321Z,99.74
2019-01-13T11:34:34.899Z,98.98
2019-01-13T11:35:45.064Z,99.74
2019-01-13T11:36:55.221Z,99.65
2019-01-13T11:38:05.402Z,99.74
2019-01-13T11:39:15.584Z,99.65
2019-01-13T11:40:25.729Z,99.74
2019-01-13T11:41:35.886Z,99.36
2019-01-13T11:42:46.079Z,99.27
2019-01-13T11:43:56.213Z,99.55
2019-01-13T11:45:06.371Z,99.65
2019-01-13T11:46:16.544Z,99.65
2019-01-13T11:47:26.709Z,99.55
2019-01-13T11:48:36.895Z,99.84
2019-01-13T11:49:47.046Z,99.65
2019-01-13T11:50:57.208Z,99.99
2019-01-13T11:52:07.427Z,99.55
2019-01-13T11:53:17.566Z,99.93
2019-01-13T11:54:27.709Z,99.84
2019-01-13T11:55:37.881Z,99.99
2019-01-13T11:56:48.073Z,99.99
2019-01-13T11:57:58.242Z,99.99
2019-01-13T11:59:08.415Z,99.99
2019-01-13T12:00:18.562Z,99.99
2019-01-13T12:01:28.736Z,99.99
2019-01-13T12:02:38.873Z,99.99
2019-01-13T12:03:49.077Z,99.99
2019-01-13T12:04:59.245Z,99.99
2019-01-13T12:06:09.919Z,99.99
2019-01-13T12:07:20.106Z,99.99
2019-01-13T12:08:31.964Z,99.99
2019-01-13T12:09:42.176Z,99.99
2019-01-13T12:10:52.364Z,99.99
2019-01-13T12:12:02.558Z,99.99
2019-01-13T12:13:12.440Z,99.99
2019-01-13T12:14:22.623Z,99.99
2019-01-13T12:15:32.777Z,99.99
2019-01-13T12:16:42.969Z,99.99
2019-01-13T12:17:53.184Z,99.99
2019-01-13T12:19:03.364Z,99.99
2019-01-13T12:20:13.517Z,99.99
2019-01-13T12:21:23.667Z,99.99
2019-01-13T12:22:33.825Z,99.99
2019-01-13T12:23:44.017Z,99.99
2019-01-13T12:24:54.224Z,99.99
2019-01-13T12:26:03.993Z,99.99
2019-01-13T12:27:14.177Z,99.99
2019-01-13T12:28:24.358Z,99.99
2019-01-13T12:29:34.550Z,99.99
2019-01-13T12:30:44.732Z,99.99
2019-01-13T12:31:54.902Z,99.99
2019-01-13T12:33:04.788Z,99.99
2019-01-13T12:34:14.991Z,99.99
2019-01-13T12:35:26.168Z,99.99
2019-01-13T12:36:36.362Z,99.99
2019-01-13T12:37:46.883Z,99.99
2019-01-13T12:38:57.658Z,99.99
2019-01-13T12:40:07.860Z,99.99
2019-01-13T12:41:18.048Z,99.99
2019-01-13T12:42:28.209Z,99.99
2019-01-13T12:43:38.348Z,99.99
2019-01-13T12:44:48.512Z,99.99
2019-01-13T12:45:58.686Z,99.99
2019-01-13T12:47:08.850Z,99.99
2019-01-13T12:48:18.953Z,99.99
2019-01-13T12:49:28.858Z,99.99
2019-01-13T12:50:39.050Z,99.99
2019-01-13T12:51:49.211Z,99.99
2019-01-13T12:52:59.339Z,99.99
2019-01-13T12:54:09.510Z,99.99
2019-01-13T12:55:19.670Z,99.99
2019-01-13T12:56:29.821Z,99.99
2019-01-13T12:57:40.018Z,99.99
2019-01-13T12:58:50.401Z,99.99
2019-01-13T13:00:00.582Z,99.99
2019-01-13T13:01:10.788Z,99.99
2019-01-13T13:02:20.957Z,99.99
2019-01-13T13:03:34.400Z,99.99
2019-01-13T13:04:44.601Z,99.99
2019-01-13T13:05:54.512Z,99.99
2019-01-13T13:07:04.679Z,99.99
2019-01-13T13:08:14.871Z,99.99
2019-01-13T13:09:25.684Z,99.99
2019-01-13T13:10:35.867Z,99.99
2019-01-13T13:11:46.059Z,99.99
2019-01-13T13:12:56.259Z,99.99
2019-01-13T13:14:06.426Z,99.99
2019-01-13T13:15:16.609Z,99.99
2019-01-13T13:16:26.797Z,99.99
2019-01-13T13:17:36.975Z,99.99
2019-01-13T13:18:47.119Z,99.99
2019-01-13T13:19:57.347Z,99.99
2019-01-13T13:21:08.501Z,99.99
2019-01-13T13:22:18.846Z,99.99
2019-01-13T13:23:28.771Z,99.99
2019-01-13T13:24:38.943Z,99.99
2019-01-13T13:25:49.369Z,99.99
2019-01-13T13:26:59.527Z,99.99
2019-01-13T13:28:09.670Z,99.99
2019-01-13T13:29:19.841Z,99.99
2019-01-13T13:30:30.007Z,99.99
2019-01-13T13:31:40.161Z,99.99
2019-01-13T13:32:50.341Z,99.99
2019-01-13T13:34:00.521Z,99.99
2019-01-13T13:35:10.676Z,99.99
2019-01-13T13:36:20.870Z,99.99
2019-01-13T13:37:30.798Z,99.99
2019-01-13T13:38:40.949Z,99.99
2019-01-13T13:39:51.112Z,99.99
2019-01-13T13:41:01.255Z,99.99
2019-01-13T13:42:11.417Z,99.99
2019-01-13T13:43:21.626Z,99.99
2019-01-13T13:44:31.555Z,99.99
2019-01-13T13:45:41.720Z,99.99
2019-01-13T13:46:51.872Z,99.99
2019-01-13T13:48:01.771Z,99.99
2019-01-13T13:49:11.926Z,99.99
2019-01-13T13:50:22.095Z,99.99
2019-01-13T13:51:32.296Z,99.99
2019-01-13T13:52:42.470Z,99.99
2019-01-13T13:53:52.855Z,99.99
2019-01-13T13:55:03.107Z,99.99
2019-01-13T13:56:13.333Z,99.99
2019-01-13T13:57:23.482Z,99.99
2019-01-13T13:58:33.650Z,99.99
2019-01-13T13:59:44.080Z,99.99
2019-01-13T14:00:54.236Z,99.99
2019-01-13T14:02:04.443Z,99.99
2019-01-13T14:03:14.650Z,99.99
2019-01-13T14:04:24.831Z,99.99
2019-01-13T14:05:35.032Z,99.99
2019-01-13T14:06:45.198Z,99.99
2019-01-13T14:07:55.395Z,99.99
2019-01-13T14:09:05.581Z,99.99
2019-01-13T14:10:15.787Z,99.99
2019-01-13T14:11:26.005Z,99.99
2019-01-13T14:12:36.218Z,99.99
2019-01-13T14:13:46.560Z,99.99
2019-01-13T14:14:56.504Z,99.99
2019-01-13T14:16:06.713Z,99.99
2019-01-13T14:17:16.948Z,99.99
2019-01-13T14:18:27.112Z,99.99
2019-01-13T14:19:37.382Z,99.99
2019-01-13T14:20:47.570Z,99.99
2019-01-13T14:21:57.766Z,99.99
2019-01-13T14:23:07.951Z,99.99
2019-01-13T14:24:18.140Z,99.99
2019-01-13T14:25:29.799Z,99.99
2019-01-13T14:26:40.034Z,99.99
2019-01-13T14:27:50.241Z,99.99
2019-01-13T14:29:00.447Z,99.99
2019-01-13T14:30:10.634Z,99.99
2019-01-13T14:31:22.465Z,99.99
2019-01-13T14:32:32.664Z,99.99
2019-01-13T14:33:42.884Z,99.99
2019-01-13T14:34:58.394Z,99.99
2019-01-13T14:36:08.585Z,99.99
2019-01-13T14:37:18.750Z,99.99
2019-01-13T14:38:28.580Z,99.99
2019-01-13T14:39:38.768Z,99.99
2019-01-13T14:40:54.273Z,99.99
2019-01-13T14:42:04.471Z,99.99
2019-01-13T14:43:15.672Z,99.99
2019-01-13T14:44:25.872Z,99.99
2019-01-13T14:45:36.117Z,99.99
2019-01-13T14:46:46.294Z,99.99
2019-01-13T14:47:56.704Z,99.99
2019-01-13T14:49:06.625Z,99.99
2019-01-13T14:50:17.708Z,99.99
2019-01-13T14:51:27.901Z,99.99
2019-01-13T14:52:38.126Z,99.99
2019-01-13T14:53:49.941Z,99.99
2019-01-13T14:55:00.253Z,99.99
2019-01-13T14:56:10.418Z,99.99
2019-01-13T14:57:20.640Z,99.99
2019-01-13T14:58:30.825Z,99.99
2019-01-13T14:59:41.034Z,99.99
2019-01-13T15:00:51.220Z,99.99
2019-01-13T15:02:01.378Z,99.99
2019-01-13T15:03:11.568Z,99.99
2019-01-13T15:04:21.716Z,99.99
2019-01-13T15:05:32.121Z,99.99
2019-01-13T15:06:42.403Z,99.99